Time;durP1;ratioP1;P1;durP2;ratioP2;P2;SDS_P1;SDS_P2;PMS_P1;PMS_P2;Temp;Humidity;BMP_temperature;BMP_pressure;BME280_temperature;BME280_humidity;BME280_pressure;Samples;Min_cycle;Max_cycle;Signal;HPM_P1;HPM_P2
2021/11/10 00:01:54;;;;;;;2.85;2.65;;;7.20;99.90;;;;;;5039123;28;20215;-85
2021/11/10 00:04:22;;;;;;;2.70;2.50;;;7.20;99.90;;;;;;5045914;28;20223;-84
2021/11/10 00:06:50;;;;;;;2.50;2.30;;;7.20;99.90;;;;;;5038833;28;20223;-82
2021/11/10 00:09:17;;;;;;;2.47;2.38;;;7.10;99.90;;;;;;5040954;28;20215;-87
2021/11/10 00:11:45;;;;;;;2.70;2.45;;;7.10;99.90;;;;;;5040971;28;20223;-83
2021/11/10 00:14:14;;;;;;;2.78;2.58;;;7.20;99.90;;;;;;5042372;28;20226;-85
2021/11/10 00:16:41;;;;;;;3.13;2.40;;;7.20;99.90;;;;;;5041240;28;20223;-86
2021/11/10 00:19:08;;;;;;;2.70;2.50;;;7.20;99.90;;;;;;5042663;28;20369;-86
2021/11/10 00:21:36;;;;;;;2.70;2.60;;;7.20;99.90;;;;;;5043973;28;20214;-87
2021/11/10 00:24:03;;;;;;;2.65;2.45;;;7.20;99.90;;;;;;5043206;28;20215;-85
2021/11/10 00:26:30;;;;;;;2.42;2.33;;;7.10;99.90;;;;;;5044263;28;20230;-88
2021/11/10 00:28:57;;;;;;;2.88;2.60;;;7.10;99.90;;;;;;5040657;28;20231;-87
2021/11/10 00:31:26;;;;;;;2.42;2.22;;;7.10;99.90;;;;;;5044249;28;20223;-84
2021/11/10 00:33:53;;;;;;;2.22;2.13;;;7.20;99.90;;;;;;5040972;28;20230;-85
2021/11/10 00:36:20;;;;;;;2.63;2.42;;;7.20;99.90;;;;;;5043652;28;20230;-86
2021/11/10 00:38:47;;;;;;;2.85;2.65;;;7.20;99.90;;;;;;5043920;28;20581;-85
2021/11/10 00:41:15;;;;;;;2.90;2.70;;;7.20;99.90;;;;;;5040784;28;20230;-86
2021/11/10 00:43:42;;;;;;;2.60;2.40;;;7.20;99.90;;;;;;5025427;28;20246;-85
2021/11/10 00:46:10;;;;;;;2.70;2.40;;;7.20;99.90;;;;;;5043495;28;20222;-85
2021/11/10 00:48:39;;;;;;;2.83;2.60;;;7.20;99.90;;;;;;5038419;28;20238;-82
2021/11/10 00:51:06;;;;;;;3.55;2.72;;;7.20;99.90;;;;;;5038291;28;20229;-84
2021/11/10 00:53:34;;;;;;;3.20;2.67;;;7.20;99.90;;;;;;5039009;28;20239;-82
2021/11/10 00:56:01;;;;;;;2.92;2.72;;;7.20;99.90;;;;;;5039788;28;20222;-86
2021/11/10 00:58:28;;;;;;;2.65;2.35;;;7.20;99.90;;;;;;5039368;28;20565;-84
2021/11/10 01:00:55;;;;;;;2.58;2.40;;;7.20;99.90;;;;;;5040927;28;20226;-83
2021/11/10 01:03:23;;;;;;;3.00;2.80;;;7.20;99.90;;;;;;5038120;28;20219;-86
2021/11/10 01:05:52;;;;;;;2.20;2.10;;;7.20;99.90;;;;;;5040979;28;20223;-87
2021/11/10 01:08:20;;;;;;;2.38;2.17;;;7.20;99.90;;;;;;5040933;28;20219;-83
2021/11/10 01:10:47;;;;;;;2.42;2.33;;;7.20;99.90;;;;;;5040396;28;20303;-87
2021/11/10 01:13:14;;;;;;;3.08;2.75;;;7.20;99.90;;;;;;5046122;28;20234;-84
2021/11/10 01:15:42;;;;;;;2.80;2.60;;;7.10;99.90;;;;;;5038286;28;20226;-84
2021/11/10 01:18:10;;;;;;;2.28;2.17;;;7.10;99.90;;;;;;5037283;28;20219;-87
2021/11/10 01:20:37;;;;;;;2.75;2.55;;;7.10;99.90;;;;;;5041731;28;20222;-83
2021/11/10 01:23:07;;;;;;;2.53;2.33;;;7.20;99.90;;;;;;5044406;28;20238;-84
2021/11/10 01:25:35;;;;;;;2.53;2.25;;;7.20;99.90;;;;;;5035462;28;20215;-84
2021/11/10 01:28:03;;;;;;;2.55;1.90;;;7.20;99.90;;;;;;5042758;28;20227;-85
2021/11/10 01:30:30;;;;;;;2.30;2.10;;;7.30;99.90;;;;;;5040275;28;20735;-84
2021/11/10 01:32:57;;;;;;;2.60;2.50;;;7.30;99.90;;;;;;5035983;28;20218;-86
2021/11/10 01:35:25;;;;;;;2.33;2.22;;;7.30;99.90;;;;;;5042225;28;20230;-87
2021/11/10 01:37:52;;;;;;;2.75;2.55;;;7.30;99.90;;;;;;5042998;28;20218;-85
2021/11/10 01:40:22;;;;;;;2.60;2.40;;;7.30;99.90;;;;;;5039969;28;20226;-86
2021/11/10 01:42:51;;;;;;;2.75;2.55;;;7.30;99.90;;;;;;5038578;28;20692;-85
2021/11/10 01:45:19;;;;;;;3.22;2.92;;;7.30;99.90;;;;;;5043126;28;20277;-82
2021/11/10 01:47:48;;;;;;;2.60;2.50;;;7.30;99.90;;;;;;5041050;28;20227;-85
2021/11/10 01:50:17;;;;;;;2.60;2.40;;;7.30;99.90;;;;;;5038771;28;20701;-88
2021/11/10 01:52:47;;;;;;;2.50;2.30;;;7.30;99.90;;;;;;5038446;28;20231;-86
2021/11/10 01:55:15;;;;;;;2.42;2.22;;;7.20;99.90;;;;;;5043919;28;20593;-88
2021/11/10 01:57:44;;;;;;;2.85;2.65;;;7.30;99.90;;;;;;5037910;28;20226;-85
2021/11/10 02:00:15;;;;;;;3.17;2.83;;;7.20;99.90;;;;;;5040852;28;20222;-85
2021/11/10 02:02:42;;;;;;;2.92;2.50;;;7.20;99.90;;;;;;5031913;28;20227;-88
2021/11/10 02:05:12;;;;;;;3.10;2.90;;;7.20;99.90;;;;;;5039641;28;20731;-85
2021/11/10 02:07:39;;;;;;;2.28;2.13;;;7.20;99.90;;;;;;5035039;28;20241;-82
2021/11/10 02:10:09;;;;;;;2.60;2.40;;;7.20;99.90;;;;;;5041733;28;20250;-85
2021/11/10 02:12:37;;;;;;;2.90;2.70;;;7.20;99.90;;;;;;5039738;28;20996;-84
2021/11/10 02:15:08;;;;;;;3.03;2.83;;;7.20;99.90;;;;;;5038549;28;20436;-85
2021/11/10 02:17:37;;;;;;;3.95;3.08;;;7.10;99.90;;;;;;5034034;28;20218;-84
2021/11/10 02:20:05;;;;;;;2.75;2.55;;;7.10;99.90;;;;;;5035449;28;20229;-86
2021/11/10 02:22:35;;;;;;;3.95;3.28;;;7.00;99.90;;;;;;5041117;28;20218;-89
2021/11/10 02:25:03;;;;;;;2.83;2.63;;;7.00;99.90;;;;;;5036751;28;20210;-87
2021/11/10 02:27:34;;;;;;;2.63;2.42;;;7.10;99.90;;;;;;5041196;28;20280;-89
2021/11/10 02:30:03;;;;;;;2.70;2.60;;;7.00;99.90;;;;;;5036953;28;20706;-87
2021/11/10 02:32:31;;;;;;;2.78;2.60;;;7.10;99.90;;;;;;5043131;28;20218;-87
2021/11/10 02:34:58;;;;;;;2.67;2.47;;;7.10;99.90;;;;;;5037965;28;20227;-86
2021/11/10 02:37:26;;;;;;;2.30;2.20;;;7.20;99.90;;;;;;5042496;28;20736;-84
2021/11/10 02:39:54;;;;;;;2.03;1.92;;;7.20;99.90;;;;;;5035891;28;20218;-86
2021/11/10 02:42:23;;;;;;;2.70;2.50;;;7.20;99.90;;;;;;5034614;28;20222;-87
2021/11/10 02:44:52;;;;;;;2.50;2.30;;;7.30;99.90;;;;;;5037565;28;20229;-87
2021/11/10 02:47:21;;;;;;;2.35;2.25;;;7.30;99.90;;;;;;5037098;28;20225;-82
2021/11/10 02:49:49;;;;;;;2.75;2.55;;;7.30;99.90;;;;;;5035941;28;20225;-86
2021/11/10 02:52:18;;;;;;;2.97;2.60;;;7.30;99.90;;;;;;5041883;28;20227;-87
2021/11/10 02:54:47;;;;;;;2.33;2.17;;;7.30;99.90;;;;;;5040127;28;20225;-85
2021/11/10 02:57:16;;;;;;;2.47;2.38;;;7.30;99.90;;;;;;5039941;28;20233;-91
2021/11/10 02:59:44;;;;;;;2.58;2.38;;;7.30;99.90;;;;;;5040549;28;20222;-87
2021/11/10 03:02:11;;;;;;;2.50;2.30;;;7.40;99.90;;;;;;5042380;28;20593;-87
2021/11/10 03:04:44;;;;;;;2.45;2.25;;;7.40;99.90;;;;;;5035875;28;20231;-86
2021/11/10 03:07:12;;;;;;;2.72;2.53;;;7.40;99.90;;;;;;5040083;28;20374;-85
2021/11/10 03:09:39;;;;;;;2.47;2.22;;;7.40;99.90;;;;;;5042862;28;20253;-84
2021/11/10 03:12:09;;;;;;;2.30;2.20;;;7.40;99.90;;;;;;5039816;28;22669;-86
2021/11/10 03:14:39;;;;;;;2.75;2.55;;;7.40;99.90;;;;;;5043241;28;20211;-85
2021/11/10 03:17:09;;;;;;;2.40;2.30;;;7.40;99.90;;;;;;5041088;28;20234;-87
2021/11/10 03:19:36;;;;;;;2.10;2.00;;;7.40;99.90;;;;;;5042692;28;20223;-85
2021/11/10 03:22:05;;;;;;;2.20;2.10;;;7.40;99.90;;;;;;5043922;28;20232;-87
2021/11/10 03:24:32;;;;;;;2.60;2.50;;;7.40;99.90;;;;;;5044891;28;20219;-86
2021/11/10 03:26:59;;;;;;;2.50;2.40;;;7.40;99.90;;;;;;5045831;28;20222;-87
2021/11/10 03:29:27;;;;;;;2.55;2.42;;;7.40;99.90;;;;;;5044236;28;20229;-89
2021/11/10 03:31:56;;;;;;;2.92;2.40;;;7.30;99.90;;;;;;5045387;28;20230;-85
2021/11/10 03:34:23;;;;;;;2.00;1.90;;;7.20;99.90;;;;;;5038649;28;20226;-85
2021/11/10 03:36:50;;;;;;;2.60;2.40;;;7.20;99.90;;;;;;5046119;28;20233;-88
2021/11/10 03:39:18;;;;;;;2.85;2.60;;;7.20;99.90;;;;;;5042064;28;20853;-84
2021/11/10 03:41:46;;;;;;;2.50;2.30;;;7.20;99.90;;;;;;5044784;28;20740;-86
2021/11/10 03:44:13;;;;;;;2.95;2.60;;;7.20;99.90;;;;;;5040979;28;20220;-87
2021/11/10 03:46:42;;;;;;;2.67;2.58;;;7.10;99.90;;;;;;5042600;28;20227;-86
2021/11/10 03:49:12;;;;;;;2.08;1.98;;;7.10;99.90;;;;;;5043807;28;20234;-85
2021/11/10 03:51:39;;;;;;;3.00;2.80;;;7.10;99.90;;;;;;5035316;28;20227;-88
2021/11/10 03:54:06;;;;;;;2.50;2.40;;;7.10;99.90;;;;;;5042011;28;20299;-86
2021/11/10 03:56:34;;;;;;;2.58;2.38;;;7.10;99.90;;;;;;5043460;28;20238;-88
2021/11/10 03:59:01;;;;;;;2.33;2.22;;;7.10;99.90;;;;;;5044016;28;20242;-87
2021/11/10 04:01:28;;;;;;;2.50;2.30;;;7.10;99.90;;;;;;5042289;28;20225;-88
2021/11/10 04:03:56;;;;;;;2.10;2.00;;;7.20;99.90;;;;;;5045490;28;20222;-87
2021/11/10 04:06:24;;;;;;;2.60;2.40;;;7.20;99.90;;;;;;5044662;28;20219;-89
2021/11/10 04:08:52;;;;;;;2.70;2.60;;;7.20;99.90;;;;;;5045796;28;20330;-87
2021/11/10 04:11:20;;;;;;;2.50;2.30;;;7.30;99.90;;;;;;5044510;28;20712;-85
2021/11/10 04:13:48;;;;;;;2.78;2.58;;;7.20;99.90;;;;;;5040537;28;20219;-86
2021/11/10 04:16:20;;;;;;;2.40;2.30;;;7.20;99.90;;;;;;5042306;28;20231;-88
2021/11/10 04:18:48;;;;;;;2.58;2.38;;;7.20;99.90;;;;;;5041808;28;20258;-88
2021/11/10 04:21:16;;;;;;;2.15;2.05;;;7.30;99.90;;;;;;5042415;28;20306;-89
2021/11/10 04:23:45;;;;;;;2.45;2.35;;;7.30;99.90;;;;;;5044810;28;20222;-88
2021/11/10 04:26:12;;;;;;;2.42;2.28;;;7.30;99.90;;;;;;5043638;28;20222;-87
2021/11/10 04:28:39;;;;;;;2.70;2.50;;;7.30;99.90;;;;;;5043354;28;20241;-87
2021/11/10 04:31:06;;;;;;;2.25;2.15;;;7.30;99.90;;;;;;5041365;28;20600;-87
2021/11/10 04:33:33;;;;;;;2.20;2.10;;;7.30;99.90;;;;;;5044071;28;20226;-88
2021/11/10 04:36:01;;;;;;;2.83;2.63;;;7.30;99.90;;;;;;5044250;28;20701;-85
2021/11/10 04:38:28;;;;;;;2.40;2.28;;;7.30;99.90;;;;;;5043144;28;20230;-87
2021/11/10 04:40:56;;;;;;;2.60;2.40;;;7.20;99.90;;;;;;5042999;28;20219;-88
2021/11/10 04:43:23;;;;;;;2.55;2.35;;;7.20;99.90;;;;;;5037389;28;20314;-88
2021/11/10 04:45:56;;;;;;;2.60;2.40;;;7.20;99.90;;;;;;5043975;28;20218;-88
2021/11/10 04:48:23;;;;;;;2.45;2.25;;;7.20;99.90;;;;;;5044262;28;20288;-87
2021/11/10 04:50:51;;;;;;;2.03;1.92;;;7.20;99.90;;;;;;5039463;28;20215;-85
2021/11/10 04:53:18;;;;;;;2.20;2.10;;;7.30;99.90;;;;;;5042107;28;20591;-84
2021/11/10 04:55:45;;;;;;;2.50;2.30;;;7.30;99.90;;;;;;5043479;28;20610;-89
2021/11/10 04:58:14;;;;;;;2.20;2.10;;;7.30;99.90;;;;;;5045037;28;20597;-85
2021/11/10 05:00:41;;;;;;;1.98;1.88;;;7.30;99.90;;;;;;5037704;28;20310;-86
2021/11/10 05:03:08;;;;;;;2.35;2.15;;;7.30;99.90;;;;;;5038209;28;20227;-88
2021/11/10 05:05:36;;;;;;;2.25;2.15;;;7.40;99.90;;;;;;5042261;28;20211;-81
2021/11/10 05:08:03;;;;;;;2.72;2.53;;;7.40;99.90;;;;;;5039478;28;20223;-88
2021/11/10 05:10:30;;;;;;;2.28;2.17;;;7.40;99.90;;;;;;5040994;28;20223;-90
2021/11/10 05:12:57;;;;;;;2.25;2.15;;;7.40;99.90;;;;;;5038830;28;20923;-89
2021/11/10 05:15:26;;;;;;;2.40;2.20;;;7.40;99.90;;;;;;5039192;28;20226;-87
2021/11/10 05:17:53;;;;;;;2.50;2.30;;;7.40;99.90;;;;;;5035155;28;20222;-86
2021/11/10 05:20:20;;;;;;;2.28;2.17;;;7.40;99.90;;;;;;5037422;28;20669;-88
2021/11/10 05:22:48;;;;;;;2.22;2.13;;;7.40;99.90;;;;;;5045675;28;20222;-86
2021/11/10 05:25:15;;;;;;;2.40;2.20;;;7.40;99.90;;;;;;5040726;28;20230;-87
2021/11/10 05:27:42;;;;;;;2.60;2.50;;;7.40;99.90;;;;;;5035693;28;20215;-87
2021/11/10 05:30:12;;;;;;;2.25;2.05;;;7.40;99.90;;;;;;5040625;28;20229;-84
2021/11/10 05:32:41;;;;;;;2.60;2.40;;;7.40;99.90;;;;;;5039879;28;20253;-85
2021/11/10 05:35:10;;;;;;;2.50;2.40;;;7.30;99.90;;;;;;5040662;28;20237;-88
2021/11/10 05:37:37;;;;;;;2.63;2.42;;;7.30;99.90;;;;;;5038241;28;20237;-88
2021/11/10 05:40:07;;;;;;;2.47;2.28;;;7.40;99.90;;;;;;5038092;28;20258;-87
2021/11/10 05:42:34;;;;;;;2.35;2.25;;;7.30;99.90;;;;;;5039636;28;20223;-88
2021/11/10 05:45:02;;;;;;;2.40;2.20;;;7.30;99.90;;;;;;5036656;28;20235;-87
2021/11/10 05:47:29;;;;;;;2.10;2.00;;;7.30;99.90;;;;;;5039892;28;20230;-86
2021/11/10 05:49:57;;;;;;;2.03;1.90;;;7.30;99.90;;;;;;5039599;28;20268;-86
2021/11/10 05:52:25;;;;;;;2.22;2.13;;;7.30;99.90;;;;;;5040117;28;20910;-88
2021/11/10 05:54:53;;;;;;;2.45;2.35;;;7.40;99.90;;;;;;5038672;28;20585;-86
2021/11/10 05:57:20;;;;;;;2.00;1.90;;;7.40;99.90;;;;;;5040797;28;20218;-87
2021/11/10 05:59:47;;;;;;;2.28;2.17;;;7.40;99.90;;;;;;5034289;28;20221;-87
2021/11/10 06:02:14;;;;;;;2.65;2.45;;;7.50;99.90;;;;;;5039711;28;20223;-90
2021/11/10 06:04:44;;;;;;;3.10;2.88;;;7.50;99.90;;;;;;5034673;28;20215;-87
2021/11/10 06:07:13;;;;;;;2.40;2.30;;;7.50;99.90;;;;;;5040594;28;20223;-89
2021/11/10 06:09:40;;;;;;;2.35;2.25;;;7.50;99.90;;;;;;5039244;28;20223;-89
2021/11/10 06:12:08;;;;;;;2.60;2.40;;;7.50;99.90;;;;;;5036223;28;20260;-80
2021/11/10 06:14:35;;;;;;;2.95;2.75;;;7.50;99.90;;;;;;5040797;28;20222;-89
2021/11/10 06:17:04;;;;;;;2.90;2.70;;;7.50;99.90;;;;;;5036827;28;20225;-90
2021/11/10 06:19:31;;;;;;;3.20;3.00;;;7.50;99.90;;;;;;5039059;28;20570;-88
2021/11/10 06:21:58;;;;;;;2.58;2.47;;;7.50;99.90;;;;;;5038248;28;20578;-88
2021/11/10 06:24:27;;;;;;;2.90;2.70;;;7.50;99.90;;;;;;5041170;28;20227;-85
2021/11/10 06:26:54;;;;;;;2.80;2.60;;;7.50;99.90;;;;;;5037712;28;20686;-88
2021/11/10 06:29:23;;;;;;;2.97;2.78;;;7.50;99.90;;;;;;5036788;28;20604;-88
2021/11/10 06:31:50;;;;;;;2.40;2.30;;;7.50;99.90;;;;;;5040730;28;20234;-91
2021/11/10 06:34:18;;;;;;;2.83;2.63;;;7.60;99.90;;;;;;5037084;28;20794;-88
2021/11/10 06:36:45;;;;;;;3.20;3.00;;;7.60;99.90;;;;;;5031409;28;20238;-89
2021/11/10 06:39:12;;;;;;;3.25;3.05;;;7.50;99.90;;;;;;5036439;28;20273;-87
2021/11/10 06:41:41;;;;;;;3.53;3.22;;;7.40;99.90;;;;;;5035115;28;20238;-85
2021/11/10 06:44:08;;;;;;;3.53;3.20;;;7.40;99.90;;;;;;5017801;28;20234;-86
2021/11/10 06:46:35;;;;;;;3.42;3.13;;;7.40;99.90;;;;;;5009120;28;20225;-86
2021/11/10 06:49:03;;;;;;;3.47;3.17;;;7.50;99.90;;;;;;5037561;28;20705;-88
2021/11/10 06:51:31;;;;;;;3.45;3.25;;;7.50;99.90;;;;;;5027823;28;20241;-83
2021/11/10 06:53:58;;;;;;;3.45;3.15;;;7.60;99.90;;;;;;5032797;28;20226;-88
2021/11/10 06:56:26;;;;;;;3.30;3.10;;;7.60;99.90;;;;;;5032195;28;20239;-85
2021/11/10 06:58:54;;;;;;;3.03;2.80;;;7.70;99.90;;;;;;5039238;28;20622;-87
2021/11/10 07:01:21;;;;;;;3.00;2.80;;;7.80;99.90;;;;;;5031458;28;20214;-91
2021/11/10 07:03:48;;;;;;;2.55;2.40;;;7.90;99.90;;;;;;5036214;28;20333;-82
2021/11/10 07:06:16;;;;;;;2.67;2.47;;;8.00;99.90;;;;;;5036257;28;20230;-87
2021/11/10 07:08:43;;;;;;;3.05;2.78;;;8.10;99.90;;;;;;5036200;28;20299;-84
2021/11/10 07:11:10;;;;;;;2.90;2.70;;;8.20;99.90;;;;;;5033276;28;20234;-83
2021/11/10 07:13:38;;;;;;;2.53;2.42;;;8.20;99.90;;;;;;5032208;28;20976;-83
2021/11/10 07:16:07;;;;;;;2.88;2.67;;;8.30;99.90;;;;;;5032333;28;20218;-83
2021/11/10 07:18:34;;;;;;;3.30;3.10;;;8.40;99.90;;;;;;5030856;28;20686;-85
2021/11/10 07:21:01;;;;;;;3.33;3.13;;;8.40;99.90;;;;;;5027228;28;20219;-86
2021/11/10 07:23:28;;;;;;;3.17;2.83;;;8.50;99.90;;;;;;5027743;28;20517;-84
2021/11/10 07:25:56;;;;;;;2.88;2.67;;;8.70;99.90;;;;;;5034032;28;20231;-85
2021/11/10 07:28:23;;;;;;;3.20;3.00;;;9.10;99.90;;;;;;5029739;28;20258;-80
2021/11/10 07:30:51;;;;;;;3.67;2.97;;;9.40;99.90;;;;;;5035075;28;20219;-83
2021/11/10 07:33:19;;;;;;;2.70;2.60;;;9.90;99.90;;;;;;5037864;28;20222;-83
2021/11/10 07:35:46;;;;;;;2.55;2.35;;;10.40;99.90;;;;;;5035322;28;20222;-82
2021/11/10 07:38:15;;;;;;;3.15;2.70;;;11.00;99.90;;;;;;5034804;28;20234;-84
2021/11/10 07:40:42;;;;;;;3.47;3.20;;;11.30;99.90;;;;;;5039367;28;20210;-80
2021/11/10 07:43:09;;;;;;;3.40;3.10;;;11.60;99.90;;;;;;5039652;28;20227;-81
2021/11/10 07:45:37;;;;;;;3.50;3.20;;;11.60;99.90;;;;;;5035624;28;20222;-81
2021/11/10 07:48:06;;;;;;;3.65;3.35;;;11.40;99.90;;;;;;5037146;28;20238;-81
2021/11/10 07:50:36;;;;;;;3.40;3.10;;;11.30;99.90;;;;;;5037118;28;20226;-79
2021/11/10 07:53:03;;;;;;;3.63;2.63;;;11.20;99.90;;;;;;5042025;28;20230;-81
2021/11/10 07:55:31;;;;;;;3.10;2.80;;;11.10;99.90;;;;;;5032373;28;20229;-80
2021/11/10 07:57:58;;;;;;;3.05;2.83;;;11.00;99.90;;;;;;5049210;28;20230;-81
2021/11/10 08:00:25;;;;;;;3.20;2.90;;;11.20;99.90;;;;;;5047910;28;20989;-83
2021/11/10 08:02:52;;;;;;;3.20;2.90;;;11.50;99.90;;;;;;5050193;28;20214;-82
2021/11/10 08:05:19;;;;;;;2.75;2.55;;;11.40;99.90;;;;;;5049502;28;20237;-81
2021/11/10 08:07:48;;;;;;;3.05;2.70;;;11.10;99.90;;;;;;5049114;28;20242;-82
2021/11/10 08:10:16;;;;;;;3.67;3.10;;;10.90;99.90;;;;;;5051691;28;20228;-86
2021/11/10 08:12:46;;;;;;;3.00;2.72;;;10.90;99.90;;;;;;5053861;28;20241;-84
2021/11/10 08:15:14;;;;;;;3.85;2.90;;;11.10;99.90;;;;;;5057863;28;20237;-81
2021/11/10 08:17:43;;;;;;;3.08;2.75;;;11.20;99.90;;;;;;5053596;28;20594;-82
2021/11/10 08:20:12;;;;;;;2.78;2.50;;;11.60;99.90;;;;;;5047500;28;20224;-83
2021/11/10 08:22:40;;;;;;;3.40;3.10;;;11.70;99.90;;;;;;5035634;28;20230;-81
2021/11/10 08:25:10;;;;;;;3.05;2.85;;;11.40;99.90;;;;;;5037795;28;20231;-84
2021/11/10 08:27:37;;;;;;;3.10;2.80;;;11.20;99.90;;;;;;5041650;28;20231;-83
2021/11/10 08:30:05;;;;;;;2.80;2.60;;;11.10;99.90;;;;;;5045959;28;20223;-82
2021/11/10 08:32:33;;;;;;;3.53;3.05;;;11.20;99.90;;;;;;5048279;28;20226;-83
2021/11/10 08:35:00;;;;;;;3.40;3.10;;;11.20;99.90;;;;;;5039593;28;20543;-81
2021/11/10 08:37:27;;;;;;;4.43;2.95;;;11.20;99.90;;;;;;5039299;28;20231;-81
2021/11/10 08:39:54;;;;;;;3.22;3.03;;;11.10;99.90;;;;;;5042208;28;20230;-83
2021/11/10 08:42:23;;;;;;;3.20;2.90;;;10.90;99.90;;;;;;5055001;28;20736;-83
2021/11/10 08:44:52;;;;;;;3.42;3.13;;;10.90;99.90;;;;;;5051544;28;20222;-84
2021/11/10 08:47:22;;;;;;;3.53;3.22;;;11.20;99.90;;;;;;5056215;28;20238;-81
2021/11/10 08:49:49;;;;;;;3.50;3.30;;;11.40;99.90;;;;;;5052226;28;20239;-84
2021/11/10 08:52:19;;;;;;;4.43;3.90;;;11.50;99.90;;;;;;5054358;28;20226;-83
2021/11/10 08:54:46;;;;;;;3.17;2.92;;;11.60;99.90;;;;;;5050410;28;20564;-82
2021/11/10 08:57:13;;;;;;;2.90;2.70;;;11.80;99.90;;;;;;5053881;28;20215;-84
2021/11/10 08:59:42;;;;;;;3.22;3.00;;;11.80;99.90;;;;;;5050840;28;20239;-82
2021/11/10 09:02:09;;;;;;;3.90;3.03;;;12.00;99.90;;;;;;5049950;28;20226;-81
2021/11/10 09:04:36;;;;;;;3.45;3.15;;;12.10;99.90;;;;;;5046255;28;20215;-82
2021/11/10 09:07:04;;;;;;;2.95;2.60;;;12.10;99.90;;;;;;5038760;28;20223;-83
2021/11/10 09:09:31;;;;;;;2.60;2.40;;;12.00;99.90;;;;;;5041435;28;20738;-82
2021/11/10 09:11:58;;;;;;;3.03;2.83;;;12.00;99.90;;;;;;5039517;28;20233;-81
2021/11/10 09:14:26;;;;;;;3.42;3.13;;;12.30;99.90;;;;;;5039801;28;20254;-82
2021/11/10 09:16:54;;;;;;;2.80;2.42;;;12.70;99.90;;;;;;5039065;28;20791;-83
2021/11/10 09:19:21;;;;;;;4.47;3.03;;;13.20;99.90;;;;;;5038059;28;20230;-81
2021/11/10 09:21:49;;;;;;;3.90;3.15;;;13.30;99.90;;;;;;5035946;28;20222;-81
2021/11/10 09:24:16;;;;;;;3.50;3.20;;;13.40;99.90;;;;;;5041036;28;20231;-82
2021/11/10 09:26:43;;;;;;;3.35;2.92;;;13.60;99.90;;;;;;5037692;28;20245;-83
2021/11/10 09:29:11;;;;;;;3.45;3.15;;;13.50;99.90;;;;;;5035251;28;20774;-82
2021/11/10 09:31:40;;;;;;;4.05;3.22;;;13.30;99.90;;;;;;5040878;28;20229;-82
2021/11/10 09:34:11;;;;;;;4.60;3.13;;;13.20;99.90;;;;;;5040190;28;20234;-81
2021/11/10 09:36:46;;;;;;;3.35;3.08;;;13.00;99.90;;;;;;5034514;28;20277;-80
2021/11/10 09:39:14;;;;;;;3.53;3.20;;;13.00;99.90;;;;;;5035188;28;20226;-82
2021/11/10 09:41:42;;;;;;;3.47;3.13;;;12.90;99.90;;;;;;5035689;28;20280;-84
2021/11/10 09:44:10;;;;;;;3.53;3.20;;;13.10;99.90;;;;;;5038474;28;20227;-82
2021/11/10 09:46:38;;;;;;;3.50;3.20;;;13.20;99.90;;;;;;5035279;28;20235;-92
2021/11/10 09:49:05;;;;;;;4.22;3.05;;;13.50;99.90;;;;;;5022558;28;20218;-88
2021/11/10 09:51:35;;;;;;;3.10;2.90;;;13.90;99.90;;;;;;5033240;28;20226;-89
2021/11/10 09:54:03;;;;;;;4.22;2.50;;;14.30;99.90;;;;;;5035690;28;20767;-85
2021/11/10 09:56:31;;;;;;;3.40;3.10;;;14.80;99.90;;;;;;5039151;28;20600;-85
2021/11/10 09:58:59;;;;;;;3.40;3.10;;;15.30;99.90;;;;;;5039386;28;20237;-85
2021/11/10 10:01:26;;;;;;;6.15;3.40;;;15.50;99.90;;;;;;5040045;28;20313;-84
2021/11/10 10:03:54;;;;;;;3.05;2.75;;;15.70;99.90;;;;;;5035451;28;20222;-81
2021/11/10 10:06:23;;;;;;;2.97;2.67;;;15.80;99.90;;;;;;5026586;28;20234;-81
2021/11/10 10:08:52;;;;;;;2.97;2.22;;;16.00;99.90;;;;;;5028689;28;20273;-82
2021/11/10 10:11:19;;;;;;;4.85;3.08;;;16.40;99.90;;;;;;5029023;28;20689;-81
2021/11/10 10:13:47;;;;;;;3.10;2.80;;;16.70;99.90;;;;;;5037371;28;20226;-81
2021/11/10 10:16:20;;;;;;;3.88;2.97;;;16.50;99.90;;;;;;5038692;28;20250;-81
2021/11/10 10:18:47;;;;;;;3.65;2.50;;;16.50;99.90;;;;;;5039112;28;20310;-82
2021/11/10 10:21:18;;;;;;;5.22;2.70;;;16.50;99.90;;;;;;5035376;28;20652;-79
2021/11/10 10:23:48;;;;;;;2.78;2.47;;;16.40;99.90;;;;;;5034423;28;20301;-78
2021/11/10 10:26:19;;;;;;;4.40;3.05;;;16.20;99.90;;;;;;5031397;28;20222;-78
2021/11/10 10:28:49;;;;;;;4.63;2.92;;;16.10;99.90;;;;;;5022361;28;20218;-78
2021/11/10 10:31:23;;;;;;;2.70;2.47;;;16.30;99.90;;;;;;5042724;28;20222;-78
2021/11/10 10:33:52;;;;;;;2.60;2.25;;;16.40;99.90;;;;;;5035898;28;20217;-77
2021/11/10 10:36:22;;;;;;;2.67;2.47;;;16.60;99.90;;;;;;5038189;28;20231;-78
2021/11/10 10:38:52;;;;;;;3.22;2.72;;;16.80;99.90;;;;;;5043477;28;20223;-78
2021/11/10 10:41:24;;;;;;;2.78;2.40;;;16.90;99.90;;;;;;5042648;28;20222;-77
2021/11/10 10:43:53;;;;;;;2.65;2.45;;;16.80;99.90;;;;;;5034942;28;20688;-78
2021/11/10 10:46:26;;;;;;;2.83;2.63;;;16.50;99.90;;;;;;5034568;28;20685;-78
2021/11/10 10:48:53;;;;;;;2.95;2.50;;;16.70;99.90;;;;;;5039296;28;20233;-77
2021/11/10 10:51:21;;;;;;;3.08;2.25;;;16.90;99.90;;;;;;5042173;28;20629;-78
2021/11/10 10:53:50;;;;;;;2.53;2.33;;;16.70;99.90;;;;;;5038057;28;20689;-77
2021/11/10 10:56:23;;;;;;;3.10;2.30;;;16.80;99.90;;;;;;5041186;28;20231;-77
2021/11/10 10:58:52;;;;;;;2.80;2.60;;;16.90;99.90;;;;;;5032614;28;20767;-77
2021/11/10 11:01:25;;;;;;;2.55;2.33;;;16.80;99.90;;;;;;5039996;28;20223;-78
2021/11/10 11:04:01;;;;;;;2.70;2.35;;;16.30;99.90;;;;;;5040456;28;20275;-77
2021/11/10 11:06:33;;;;;;;3.00;2.70;;;16.50;99.90;;;;;;5037949;28;20842;-77
2021/11/10 11:09:14;;;;;;;3.55;2.88;;;16.80;99.90;;;;;;5041613;28;20219;-78
2021/11/10 11:11:54;;;;;;;3.67;2.45;;;17.10;99.90;;;;;;5046619;28;20219;-78
2021/11/10 11:17:24;;;;;;;2.35;2.15;;;17.10;99.90;;;;;;5043424;28;20244;-77
2021/11/10 11:19:55;;;;;;;2.78;2.50;;;16.70;99.90;;;;;;5040457;28;20242;-77
2021/11/10 11:22:22;;;;;;;4.15;2.40;;;16.50;99.90;;;;;;5043305;28;20250;-77
2021/11/10 11:24:50;;;;;;;2.50;2.30;;;16.50;99.90;;;;;;5043741;28;20222;-77
2021/11/10 11:27:25;;;;;;;2.95;2.55;;;16.80;99.90;;;;;;5042221;28;20235;-77
2021/11/10 11:29:58;;;;;;;3.00;2.78;;;17.00;99.90;;;;;;5031125;28;20249;-78
2021/11/10 11:32:29;;;;;;;3.38;2.53;;;17.00;99.90;;;;;;5041147;28;20235;-78
2021/11/10 11:35:00;;;;;;;2.45;2.22;;;16.80;99.90;;;;;;5046202;28;20223;-78
2021/11/10 11:37:28;;;;;;;4.07;3.05;;;16.70;99.90;;;;;;5040927;28;20221;-77
2021/11/10 11:39:59;;;;;;;2.50;2.30;;;16.90;99.90;;;;;;5042085;28;20234;-78
2021/11/10 11:42:28;;;;;;;2.78;2.58;;;16.90;99.90;;;;;;5038589;28;20226;-77
2021/11/10 11:44:56;;;;;;;2.78;2.55;;;16.80;99.90;;;;;;5043019;28;20456;-78
2021/11/10 11:47:25;;;;;;;3.83;2.45;;;16.40;99.90;;;;;;5033739;28;20218;-80
2021/11/10 11:49:54;;;;;;;7.75;2.97;;;15.90;99.90;;;;;;5050607;28;20222;-80
2021/11/10 11:52:29;;;;;;;4.97;2.38;;;15.70;99.90;;;;;;5055547;28;20261;-82
2021/11/10 11:55:11;;;;;;;3.08;2.17;;;15.80;99.90;;;;;;5057401;28;20222;-81
2021/11/10 11:57:42;;;;;;;3.78;2.67;;;15.90;99.90;;;;;;5039319;28;20437;-80
2021/11/10 12:00:10;;;;;;;2.65;2.45;;;15.90;99.90;;;;;;5048420;28;20230;-80
2021/11/10 12:02:40;;;;;;;2.58;2.38;;;15.90;99.90;;;;;;5046120;28;20257;-80
2021/11/10 12:05:18;;;;;;;2.10;1.90;;;15.90;99.90;;;;;;5043155;28;20227;-80
2021/11/10 12:07:51;;;;;;;2.20;1.90;;;16.00;99.90;;;;;;5047152;28;20222;-80
2021/11/10 12:10:42;;;;;;;2.10;2.00;;;16.30;99.90;;;;;;5048678;28;20443;-79
2021/11/10 12:13:23;;;;;;;4.75;2.22;;;16.40;99.90;;;;;;5034061;28;20313;-79
2021/11/10 12:16:17;;;;;;;2.88;2.15;;;16.70;99.90;;;;;;5033648;28;20549;-79
2021/11/10 12:18:47;;;;;;;3.22;2.08;;;16.70;99.90;;;;;;5038959;28;20227;-80
2021/11/10 12:21:19;;;;;;;2.22;1.98;;;16.90;99.90;;;;;;5035366;28;20218;-81
2021/11/10 12:24:04;;;;;;;2.60;2.40;;;16.80;99.90;;;;;;5039921;28;20635;-80
2021/11/10 12:26:32;;;;;;;3.38;2.20;;;16.40;99.90;;;;;;5031579;28;20230;-79
2021/11/10 12:29:02;;;;;;;2.67;2.22;;;16.10;99.90;;;;;;5037470;28;20226;-79
2021/11/10 12:31:30;;;;;;;2.78;2.20;;;15.90;99.90;;;;;;5034017;28;20223;-81
2021/11/10 12:33:59;;;;;;;2.80;2.40;;;15.90;99.90;;;;;;5035699;28;20241;-79
2021/11/10 12:36:51;;;;;;;2.30;2.10;;;15.70;99.90;;;;;;5036160;28;20531;-80
2021/11/10 12:39:30;;;;;;;2.78;2.22;;;15.70;99.90;;;;;;5038060;28;20316;-80
2021/11/10 12:41:59;;;;;;;2.35;2.15;;;15.70;99.90;;;;;;5035565;28;20242;-80
2021/11/10 12:44:29;;;;;;;2.10;2.00;;;15.60;99.90;;;;;;5038927;28;20689;-80
2021/11/10 12:46:57;;;;;;;2.70;2.30;;;15.60;99.90;;;;;;5036148;28;20218;-79
2021/11/10 12:49:24;;;;;;;5.78;2.22;;;15.60;99.90;;;;;;5036737;28;20226;-79
2021/11/10 12:52:14;;;;;;;3.85;2.22;;;15.80;99.90;;;;;;5035556;28;20226;-79
2021/11/10 12:54:44;;;;;;;2.97;2.25;;;16.00;99.90;;;;;;5027565;28;20246;-80
2021/11/10 12:57:12;;;;;;;2.17;1.98;;;16.20;99.90;;;;;;5034857;28;20709;-79
2021/11/10 12:59:47;;;;;;;2.58;2.33;;;16.30;99.90;;;;;;5038177;28;20230;-79
2021/11/10 13:02:16;;;;;;;2.22;2.03;;;16.50;99.90;;;;;;5033354;28;20226;-79
2021/11/10 13:04:47;;;;;;;2.58;2.38;;;16.60;99.90;;;;;;5033663;28;20231;-79